Impacts TAF Board
For situational awareness. Not to be used for flight planning purposes.
IDs:

KPIT - Pittsburgh Intl, PA, US

Issued at 2320 UTC 15 Oct 2018
Updated at 0107 UTC 16 Oct 2018
Potential Impact None Slight Moderate High
Time0051Z 16/02Z 16/03Z 16/04Z 16/05Z 16/06Z 16/07Z 16/08Z 16/09Z 16/10Z 16/11Z 16/12Z 16/13Z 16/14Z>>
Type OBS PRVL PRVL PRVL PRVL PRVL PRVL PRVL PRVL PRVL PRVL PRVL PRVL PRVL
VIS 10 >6 >6 >6 >6 >6 >6 >6 >6 >6 >6 >6 >6 >6
CIG 75 20 20 20 20 -- -- -- -- -- -- -- -- --
Cover OVC OVC OVC OVC OVC SCT SCT SCT SCT SCT SCT SCT SCT SKC
FltCat VFR MVFR MVFR MVFR MVFR VFR VFR VFR VFR VFR VFR VFR VFR VFR
WX -- -- -- -- -- -- -- -- -- -- -- -- -- --
WDir 290 290 290 290 290 300 300 300 300 300 300 300 300 250
WSpd 10 12 12 12 12 5 5 5 5 5 5 5 5 10
WGst 18 -- -- -- -- -- -- -- -- -- -- -- -- --
Raw TAF
KPIT 152320Z 1600/1706 29012KT P6SM OVC020
  FM160600 30005KT P6SM SCT035
  FM161400 25010KT P6SM SKC


Raw METAR
KPIT 160051Z 29010G18KT 10SM FEW028 OVC075 10/07 A3011 RMK AO2 SLP203 T01000067
KPIT 160029Z 29011KT 10SM SCT025 OVC070 10/07 A3010 RMK AO2 T01000072
KPIT 152351Z 28017G21KT 10SM OVC021 11/08 A3009 RMK AO2 PRESRR SLP197 60016 T01060078 10167 20106 53034
KPIT 152251Z 28014G21KT 10SM FEW014 OVC023 11/09 A3004 RMK AO2 SLP178 T01110094

METAR Board
Radar Display
Forecast Discussion
For situational awareness. Not to be used for flight planning purposes.